Shin Puropan Maru — JG5508 — position and weather

sailwx.info

Track history (hours):
 
Tides and Currents Weather Stations Pressure Air Temp Water Temp Dewpoint Dewpoint Depression Visibility Wind Speed Wind Dir Waves Ship Positions

Shin Puropan Maru

Last reported at 2014-Nov-01 11:24 UTC. Time now 2014-Nov-01 12:42 UTC.
Position N 34°07' E 134°59'.

Length 66 m; draft 3.6 m.

Type: Ship (hazmat cat A). MMSI: 431100348.

Date/timePositionNaut miles runAvg speedWind from/ knotsBaromVisibWave heightAir tempDewpointWater temp
2014-Nov-01 11:24N 34°07' E 134°59'2212.0
2014-Nov-01 09:33N 34°27' E 135°09'1312.9
2014-Nov-01 08:33N 34°36' E 135°21'4 0.9
2014-Nov-01 04:33N 34°35' E 135°25'2 1.9
2014-Nov-01 03:32N 34°35' E 135°23'2 2.3
2014-Nov-01 02:33N 34°33' E 135°25'0 0.0
2014-Oct-31 23:23N 34°34' E 135°25'2 1.9
2014-Oct-31 22:24N 34°34' E 135°23'0 0.0
2014-Oct-31 21:24N 34°34' E 135°23'0 0.0
2014-Oct-31 20:24N 34°34' E 135°23'0 0.0
2014-Oct-31 19:30N 34°34' E 135°23'0 0.0
2014-Oct-31 18:30N 34°34' E 135°23'0 0.0
2014-Oct-31 17:18N 34°34' E 135°23'0 0.0
2014-Oct-31 16:06N 34°34' E 135°23'0 0.0
2014-Oct-31 15:12N 34°34' E 135°23'0 0.0
2014-Oct-31 14:24N 34°34' E 135°23'0 0.0
2014-Oct-31 13:18N 34°34' E 135°23'0 0.0
2014-Oct-31 12:30N 34°34' E 135°23'0 0.0
2014-Oct-31 11:24N 34°34' E 135°23'0 0.0
2014-Oct-31 09:33N 34°34' E 135°23'3 2.6
2014-Oct-31 08:33N 34°36' E 135°24'2 0.8
2014-Oct-31 05:33N 34°34' E 135°26'1 0.1
2014-Oct-30 23:33N 34°33' E 135°26'2 2.3
2014-Oct-30 22:33N 34°34' E 135°23'0 0.0
2014-Oct-30 21:09N 34°34' E 135°23'0 0.0
2014-Oct-30 20:21N 34°34' E 135°23'0 0.0
2014-Oct-30 19:33N 34°34' E 135°23'0 0.0
2014-Oct-30 18:33N 34°34' E 135°23'0 0.0
2014-Oct-30 17:27N 34°34' E 135°23'0 0.0
2014-Oct-30 16:33N 34°34' E 135°23'0 0.0
2014-Oct-30 14:27N 34°34' E 135°23'0 0.0
2014-Oct-30 13:21N 34°34' E 135°23'0 0.0
2014-Oct-30 12:33N 34°34' E 135°23'3 3.4
2014-Oct-30 11:33N 34°35' E 135°19'5 5.4
2014-Oct-30 10:33N 34°34' E 135°26'0 0.0
2014-Oct-30 07:23N 34°34' E 135°26'0 0.0
2014-Oct-30 06:29N 34°34' E 135°26'0 0.3
2014-Oct-30 05:33N 34°35' E 135°25'2 2.2
2014-Oct-30 04:33N 34°35' E 135°23'3 0.6
2014-Oct-29 23:33N 34°33' E 135°26'4 4.1
2014-Oct-29 22:33N 34°33' E 135°21'2 0.8
2014-Oct-29 20:26N 34°33' E 135°19'0 0.0
2014-Oct-29 19:32N 34°33' E 135°19'0 0.0
2014-Oct-29 18:14N 34°33' E 135°19'0 0.0
2014-Oct-29 17:32N 34°33' E 135°19'0 0.0
2014-Oct-29 16:26N 34°33' E 135°19'0 0.0
2014-Oct-29 15:32N 34°33' E 135°19'0 0.0
2014-Oct-29 14:26N 34°33' E 135°19'0 0.0
2014-Oct-29 11:32N 34°33' E 135°19'0 0.0
2014-Oct-29 10:32N 34°33' E 135°19'0 0.0
2014-Oct-29 09:32N 34°33' E 135°19'0 0.0
2014-Oct-29 08:26N 34°33' E 135°19'0 0.0
2014-Oct-29 07:32N 34°33' E 135°19'0 0.0
2014-Oct-29 06:14N 34°33' E 135°19'0 0.0
2014-Oct-29 05:32N 34°33' E 135°19'0 0.0
2014-Oct-29 04:32N 34°33' E 135°19'2 2.1
2014-Oct-29 03:33N 34°35' E 135°19'1 0.6
2014-Oct-29 02:33N 34°35' E 135°18'3 2.7
2014-Oct-29 01:20N 34°32' E 135°19'0 0.0
2014-Oct-29 00:26N 34°32' E 135°19'0 0.0
2014-Oct-28 23:32N 34°32' E 135°19'0 0.0
2014-Oct-28 22:32N 34°32' E 135°19'0 0.0
2014-Oct-28 21:32N 34°32' E 135°19'0 0.0
2014-Oct-28 20:20N 34°32' E 135°19'0 0.0
2014-Oct-28 19:32N 34°32' E 135°19'0 0.0
2014-Oct-28 18:20N 34°32' E 135°19'0 0.0
2014-Oct-28 17:32N 34°32' E 135°19'0 0.0
2014-Oct-28 16:32N 34°32' E 135°19'0 0.0
2014-Oct-28 15:32N 34°32' E 135°19'0 0.0
2014-Oct-28 14:32N 34°32' E 135°19'0 0.0
2014-Oct-28 13:26N 34°32' E 135°19'0 0.0
2014-Oct-28 12:32N 34°32' E 135°19'0 0.0
2014-Oct-28 11:32N 34°32' E 135°19'0 0.0
2014-Oct-28 10:32N 34°32' E 135°19'0 0.0
2014-Oct-28 09:32N 34°32' E 135°19'2 2.4
2014-Oct-28 08:33N 34°34' E 135°20'4 2.9
2014-Oct-28 07:08N 34°34' E 135°26'3 1.2
2014-Oct-28 04:33N 34°36' E 135°23'1 0.6
2014-Oct-28 03:33N 34°36' E 135°23'2 1.5
2014-Oct-28 02:31N 34°34' E 135°23'2 0.5
2014-Oct-27 23:09N 34°34' E 135°25'2 3.2
2014-Oct-27 22:33N 34°34' E 135°23'0 0.1
2014-Oct-27 21:25N 34°34' E 135°23'0 0.0
2014-Oct-27 19:31N 34°34' E 135°23'0 0.1
2014-Oct-27 18:31N 34°34' E 135°23'0 0.0
2014-Oct-27 15:31N 34°34' E 135°23'0 0.0
2014-Oct-27 14:19N 34°34' E 135°23'0 0.1
2014-Oct-27 13:31N 34°34' E 135°23'0 0.0
2014-Oct-27 12:25N 34°34' E 135°23'0 0.0
2014-Oct-27 11:25N 34°34' E 135°23'0 0.0
2014-Oct-27 09:07N 34°34' E 135°23'0 0.0
2014-Oct-27 07:21N 34°34' E 135°23'2 2.7
2014-Oct-27 06:33N 34°34' E 135°26'0 0.0
2014-Oct-27 03:30N 34°34' E 135°26'1 1.2
2014-Oct-27 02:33N 34°33' E 135°25'0 0.0
2014-Oct-26 23:12N 34°33' E 135°25'2 1.1
2014-Oct-26 21:33N 34°34' E 135°23'0 0.0
2014-Oct-26 20:21N 34°34' E 135°23'0 0.0
2014-Oct-26 19:27N 34°34' E 135°23'0 0.0
2014-Oct-26 18:33N 34°34' E 135°23'0 0.0
2014-Oct-26 16:33N 34°34' E 135°23'0 0.0
2014-Oct-26 15:33N 34°34' E 135°23'0 0.0
2014-Oct-26 14:33N 34°34' E 135°23'0 0.0
2014-Oct-26 13:27N 34°34' E 135°23'0 0.0
2014-Oct-26 12:33N 34°34' E 135°23'0 0.0
2014-Oct-26 11:33N 34°34' E 135°23'0 0.0
2014-Oct-26 10:21N 34°34' E 135°23'0 0.0
2014-Oct-26 08:09N 34°34' E 135°23'0 0.0
2014-Oct-26 07:33N 34°34' E 135°23'0 0.0
2014-Oct-26 06:27N 34°34' E 135°23'0 0.0
2014-Oct-26 05:15N 34°34' E 135°23'0 0.0
2014-Oct-26 04:33N 34°34' E 135°23'0 0.0
2014-Oct-26 03:33N 34°34' E 135°23'3 3.5
2014-Oct-26 02:33N 34°36' E 135°19'5 1.3
2014-Oct-25 22:33N 34°35' E 135°25'2 1.1
2014-Oct-25 20:33N 34°35' E 135°23'0 0.0
2014-Oct-25 19:33N 34°36' E 135°23'0 0.0
2014-Oct-25 18:33N 34°35' E 135°23'0 0.0
2014-Oct-25 17:33N 34°35' E 135°23'0 0.0
2014-Oct-25 16:09N 34°35' E 135°23'0 0.0
2014-Oct-25 15:33N 34°35' E 135°23'0 0.0
2014-Oct-25 14:27N 34°35' E 135°23'0 0.0
2014-Oct-25 13:33N 34°35' E 135°23'0 0.0
2014-Oct-25 12:33N 34°35' E 135°23'0 0.0
2014-Oct-25 11:27N 34°35' E 135°23'0 0.1
2014-Oct-25 10:33N 34°35' E 135°23'8 7.6
2014-Oct-25 09:30N 34°30' E 135°15'1212.1
2014-Oct-25 08:30N 34°22' E 135°05'1010.6
2014-Oct-25 07:32N 34°13' E 134°60'241 9.9
2014-Oct-24 07:14N 35°10' E 139°44'710.8
2014-Oct-24 06:34N 35°18' E 139°44'10 9.8
2014-Oct-24 05:34N 35°27' E 139°48'1511.0
2014-Oct-24 04:11N 35°33' E 140°05'  
Track history (hours):
 
Tides and Currents Weather Stations Pressure Air Temp Water Temp Dewpoint Dewpoint Depression Visibility Wind Speed Wind Dir Waves Ship Positions

Shin Puropan Maru

Last reported at 2014-Nov-01 11:24 UTC. Time now 2014-Nov-01 12:42 UTC.
Position N 34°07' E 134°59'.

Length 66 m; draft 3.6 m.

Type: Ship (hazmat cat A). MMSI: 431100348.

Date/timePositionNaut miles runAvg speedWind from/ knotsBaromVisibWave heightAir tempDewpointWater temp
2014-Nov-01 11:24N 34°07' E 134°59'2212.0
2014-Nov-01 09:33N 34°27' E 135°09'1312.9
2014-Nov-01 08:33N 34°36' E 135°21'4 0.9
2014-Nov-01 04:33N 34°35' E 135°25'2 1.9
2014-Nov-01 03:32N 34°35' E 135°23'2 2.3
2014-Nov-01 02:33N 34°33' E 135°25'0 0.0
2014-Oct-31 23:23N 34°34' E 135°25'2 1.9
2014-Oct-31 22:24N 34°34' E 135°23'0 0.0
2014-Oct-31 21:24N 34°34' E 135°23'0 0.0
2014-Oct-31 20:24N 34°34' E 135°23'0 0.0
2014-Oct-31 19:30N 34°34' E 135°23'0 0.0
2014-Oct-31 18:30N 34°34' E 135°23'0 0.0
2014-Oct-31 17:18N 34°34' E 135°23'0 0.0
2014-Oct-31 16:06N 34°34' E 135°23'0 0.0
2014-Oct-31 15:12N 34°34' E 135°23'0 0.0
2014-Oct-31 14:24N 34°34' E 135°23'0 0.0
2014-Oct-31 13:18N 34°34' E 135°23'0 0.0
2014-Oct-31 12:30N 34°34' E 135°23'0 0.0
2014-Oct-31 11:24N 34°34' E 135°23'0 0.0
2014-Oct-31 09:33N 34°34' E 135°23'3 2.6
2014-Oct-31 08:33N 34°36' E 135°24'2 0.8
2014-Oct-31 05:33N 34°34' E 135°26'1 0.1
2014-Oct-30 23:33N 34°33' E 135°26'2 2.3
2014-Oct-30 22:33N 34°34' E 135°23'0 0.0
2014-Oct-30 21:09N 34°34' E 135°23'0 0.0
2014-Oct-30 20:21N 34°34' E 135°23'0 0.0
2014-Oct-30 19:33N 34°34' E 135°23'0 0.0
2014-Oct-30 18:33N 34°34' E 135°23'0 0.0
2014-Oct-30 17:27N 34°34' E 135°23'0 0.0
2014-Oct-30 16:33N 34°34' E 135°23'0 0.0
2014-Oct-30 14:27N 34°34' E 135°23'0 0.0
2014-Oct-30 13:21N 34°34' E 135°23'0 0.0
2014-Oct-30 12:33N 34°34' E 135°23'3 3.4
2014-Oct-30 11:33N 34°35' E 135°19'5 5.4
2014-Oct-30 10:33N 34°34' E 135°26'0 0.0
2014-Oct-30 07:23N 34°34' E 135°26'0 0.0
2014-Oct-30 06:29N 34°34' E 135°26'0 0.3
2014-Oct-30 05:33N 34°35' E 135°25'2 2.2
2014-Oct-30 04:33N 34°35' E 135°23'3 0.6
2014-Oct-29 23:33N 34°33' E 135°26'4 4.1
2014-Oct-29 22:33N 34°33' E 135°21'2 0.8
2014-Oct-29 20:26N 34°33' E 135°19'0 0.0
2014-Oct-29 19:32N 34°33' E 135°19'0 0.0
2014-Oct-29 18:14N 34°33' E 135°19'0 0.0
2014-Oct-29 17:32N 34°33' E 135°19'0 0.0
2014-Oct-29 16:26N 34°33' E 135°19'0 0.0
2014-Oct-29 15:32N 34°33' E 135°19'0 0.0
2014-Oct-29 14:26N 34°33' E 135°19'0 0.0
2014-Oct-29 11:32N 34°33' E 135°19'0 0.0
2014-Oct-29 10:32N 34°33' E 135°19'0 0.0
2014-Oct-29 09:32N 34°33' E 135°19'0 0.0
2014-Oct-29 08:26N 34°33' E 135°19'0 0.0
2014-Oct-29 07:32N 34°33' E 135°19'0 0.0
2014-Oct-29 06:14N 34°33' E 135°19'0 0.0
2014-Oct-29 05:32N 34°33' E 135°19'0 0.0
2014-Oct-29 04:32N 34°33' E 135°19'2 2.1
2014-Oct-29 03:33N 34°35' E 135°19'1 0.6
2014-Oct-29 02:33N 34°35' E 135°18'3 2.7
2014-Oct-29 01:20N 34°32' E 135°19'0 0.0
2014-Oct-29 00:26N 34°32' E 135°19'0 0.0
2014-Oct-28 23:32N 34°32' E 135°19'0 0.0
2014-Oct-28 22:32N 34°32' E 135°19'0 0.0
2014-Oct-28 21:32N 34°32' E 135°19'0 0.0
2014-Oct-28 20:20N 34°32' E 135°19'0 0.0
2014-Oct-28 19:32N 34°32' E 135°19'0 0.0
2014-Oct-28 18:20N 34°32' E 135°19'0 0.0
2014-Oct-28 17:32N 34°32' E 135°19'0 0.0
2014-Oct-28 16:32N 34°32' E 135°19'0 0.0
2014-Oct-28 15:32N 34°32' E 135°19'0 0.0
2014-Oct-28 14:32N 34°32' E 135°19'0 0.0
2014-Oct-28 13:26N 34°32' E 135°19'0 0.0
2014-Oct-28 12:32N 34°32' E 135°19'0 0.0
2014-Oct-28 11:32N 34°32' E 135°19'0 0.0
2014-Oct-28 10:32N 34°32' E 135°19'0 0.0
2014-Oct-28 09:32N 34°32' E 135°19'2 2.4
2014-Oct-28 08:33N 34°34' E 135°20'4 2.9
2014-Oct-28 07:08N 34°34' E 135°26'3 1.2
2014-Oct-28 04:33N 34°36' E 135°23'1 0.6
2014-Oct-28 03:33N 34°36' E 135°23'2 1.5
2014-Oct-28 02:31N 34°34' E 135°23'2 0.5
2014-Oct-27 23:09N 34°34' E 135°25'2 3.2
2014-Oct-27 22:33N 34°34' E 135°23'0 0.1
2014-Oct-27 21:25N 34°34' E 135°23'0 0.0
2014-Oct-27 19:31N 34°34' E 135°23'0 0.1
2014-Oct-27 18:31N 34°34' E 135°23'0 0.0
2014-Oct-27 15:31N 34°34' E 135°23'0 0.0
2014-Oct-27 14:19N 34°34' E 135°23'0 0.1
2014-Oct-27 13:31N 34°34' E 135°23'0 0.0
2014-Oct-27 12:25N 34°34' E 135°23'0 0.0
2014-Oct-27 11:25N 34°34' E 135°23'0 0.0
2014-Oct-27 09:07N 34°34' E 135°23'0 0.0
2014-Oct-27 07:21N 34°34' E 135°23'2 2.7
2014-Oct-27 06:33N 34°34' E 135°26'0 0.0
2014-Oct-27 03:30N 34°34' E 135°26'1 1.2
2014-Oct-27 02:33N 34°33' E 135°25'0 0.0
2014-Oct-26 23:12N 34°33' E 135°25'2 1.1
2014-Oct-26 21:33N 34°34' E 135°23'0 0.0
2014-Oct-26 20:21N 34°34' E 135°23'0 0.0
2014-Oct-26 19:27N 34°34' E 135°23'0 0.0
2014-Oct-26 18:33N 34°34' E 135°23'0 0.0
2014-Oct-26 16:33N 34°34' E 135°23'0 0.0
2014-Oct-26 15:33N 34°34' E 135°23'0 0.0
2014-Oct-26 14:33N 34°34' E 135°23'0 0.0
2014-Oct-26 13:27N 34°34' E 135°23'0 0.0
2014-Oct-26 12:33N 34°34' E 135°23'0 0.0
2014-Oct-26 11:33N 34°34' E 135°23'0 0.0
2014-Oct-26 10:21N 34°34' E 135°23'0 0.0
2014-Oct-26 08:09N 34°34' E 135°23'0 0.0
2014-Oct-26 07:33N 34°34' E 135°23'0 0.0
2014-Oct-26 06:27N 34°34' E 135°23'0 0.0
2014-Oct-26 05:15N 34°34' E 135°23'0 0.0
2014-Oct-26 04:33N 34°34' E 135°23'0 0.0
2014-Oct-26 03:33N 34°34' E 135°23'3 3.5
2014-Oct-26 02:33N 34°36' E 135°19'5 1.3
2014-Oct-25 22:33N 34°35' E 135°25'2 1.1
2014-Oct-25 20:33N 34°35' E 135°23'0 0.0
2014-Oct-25 19:33N 34°36' E 135°23'0 0.0
2014-Oct-25 18:33N 34°35' E 135°23'0 0.0
2014-Oct-25 17:33N 34°35' E 135°23'0 0.0
2014-Oct-25 16:09N 34°35' E 135°23'0 0.0
2014-Oct-25 15:33N 34°35' E 135°23'0 0.0
2014-Oct-25 14:27N 34°35' E 135°23'0 0.0
2014-Oct-25 13:33N 34°35' E 135°23'0 0.0
2014-Oct-25 12:33N 34°35' E 135°23'0 0.0
2014-Oct-25 11:27N 34°35' E 135°23'0 0.1
2014-Oct-25 10:33N 34°35' E 135°23'8 7.6
2014-Oct-25 09:30N 34°30' E 135°15'1212.1
2014-Oct-25 08:30N 34°22' E 135°05'1010.6
2014-Oct-25 07:32N 34°13' E 134°60'241 9.9
2014-Oct-24 07:14N 35°10' E 139°44'710.8
2014-Oct-24 06:34N 35°18' E 139°44'10 9.8
2014-Oct-24 05:34N 35°27' E 139°48'1511.0
2014-Oct-24 04:11N 35°33' E 140°05'  

Dump ship's entire track history